Time;durP1;ratioP1;P1;durP2;ratioP2;P2;SDS_P1;SDS_P2;PMS_P1;PMS_P2;Temp;Humidity;BMP_temperature;BMP_pressure;BME280_temperature;BME280_humidity;BME280_pressure;Samples;Min_cycle;Max_cycle;Signal;HPM_P1;HPM_P2
2023/03/21 00:01:43;;;;;;;18.73;10.93;;;;;;;8.91;100.00;101631.16;5067259;28;20032;-83
2023/03/21 00:04:09;;;;;;;16.58;10.48;;;;;;;8.89;100.00;101622.41;5084078;28;20091;-83
2023/03/21 00:06:35;;;;;;;19.92;10.90;;;;;;;8.88;100.00;101626.88;5077118;28;20526;-83
2023/03/21 00:09:01;;;;;;;20.98;11.13;;;;;;;8.84;100.00;101622.72;5069546;28;20029;-83
2023/03/21 00:11:26;;;;;;;19.73;11.15;;;;;;;8.80;100.00;101618.50;5074317;28;20036;-83
2023/03/21 00:13:52;;;;;;;18.40;10.55;;;;;;;8.79;100.00;101614.16;5070055;28;20021;-83
2023/03/21 00:16:18;;;;;;;19.92;11.43;;;;;;;8.80;100.00;101607.06;5061968;28;20029;-83
2023/03/21 00:18:51;;;;;;;18.40;11.27;;;;;;;8.77;100.00;101604.59;5056504;28;20036;-83
2023/03/21 00:21:18;;;;;;;14.45;10.80;;;;;;;8.76;100.00;101605.53;5074639;28;20036;-83
2023/03/21 00:23:45;;;;;;;13.10;10.23;;;;;;;8.78;100.00;101604.50;5065876;28;20060;-83
2023/03/21 00:26:11;;;;;;;20.33;11.77;;;;;;;8.76;100.00;101598.44;5056984;28;20025;-83
2023/03/21 00:28:41;;;;;;;19.25;11.35;;;;;;;8.77;100.00;101594.00;5074515;28;20068;-83
2023/03/21 00:31:07;;;;;;;16.00;10.45;;;;;;;8.77;100.00;101594.84;5074273;28;20055;-83
2023/03/21 00:33:34;;;;;;;19.73;10.25;;;;;;;8.78;100.00;101593.06;5074308;28;20081;-83
2023/03/21 00:36:00;;;;;;;15.15;10.23;;;;;;;8.77;100.00;101597.50;5074747;28;20111;-83
2023/03/21 00:38:25;;;;;;;16.63;10.27;;;;;;;8.77;100.00;101581.59;5063942;28;20067;-83
2023/03/21 00:40:51;;;;;;;20.50;10.13;;;;;;;8.77;100.00;101586.91;5064489;28;20060;-83
2023/03/21 00:43:18;;;;;;;16.75;10.10;;;;;;;8.78;100.00;101582.47;5066009;28;20028;-83
2023/03/21 00:45:44;;;;;;;15.93;10.20;;;;;;;8.78;100.00;101583.31;5056775;28;20021;-83
2023/03/21 00:48:10;;;;;;;18.75;9.70;;;;;;;8.76;100.00;101569.31;5064994;28;20439;-83
2023/03/21 00:50:37;;;;;;;14.27;9.90;;;;;;;8.79;100.00;101568.28;5061487;28;20055;-83
2023/03/21 00:53:03;;;;;;;20.80;9.23;;;;;;;8.78;100.00;101567.41;5074129;28;20056;-83
2023/03/21 00:55:28;;;;;;;15.48;9.25;;;;;;;8.78;100.00;101561.28;5070181;28;20039;-83
2023/03/21 00:57:53;;;;;;;18.45;9.13;;;;;;;8.81;100.00;101566.38;5065398;28;20028;-83
2023/03/21 01:00:19;;;;;;;20.77;10.07;;;;;;;8.77;100.00;101552.47;5057172;28;20122;-83
2023/03/21 01:02:55;;;;;;;15.82;9.07;;;;;;;8.79;100.00;101555.91;5074886;28;20099;-83
2023/03/21 01:08:11;;;;;;;13.95;8.98;;;;;;;8.81;100.00;101550.47;5068380;28;20124;-83
2023/03/21 01:10:41;;;;;;;18.27;8.93;;;;;;;8.79;100.00;101540.00;5064364;28;20029;-83
2023/03/21 01:13:07;;;;;;;17.55;8.68;;;;;;;8.83;100.00;101538.03;5057955;28;20480;-83
2023/03/21 01:15:32;;;;;;;17.30;8.13;;;;;;;8.81;100.00;101534.59;5064340;28;20477;-83
2023/03/21 01:17:58;;;;;;;18.75;8.63;;;;;;;8.83;100.00;101527.44;5074248;28;20078;-83
2023/03/21 01:20:23;;;;;;;16.88;8.70;;;;;;;8.83;100.00;101528.28;5074328;28;20040;-83
2023/03/21 01:22:48;;;;;;;15.52;8.48;;;;;;;8.80;100.00;101525.81;5074507;28;20025;-83
2023/03/21 01:25:14;;;;;;;18.45;8.75;;;;;;;8.83;100.00;101535.38;5067203;28;20392;-81
2023/03/21 01:27:42;;;;;;;17.20;7.75;;;;;;;8.83;100.00;101535.38;5069209;28;20032;-81
2023/03/21 01:30:08;;;;;;;15.10;8.40;;;;;;;8.82;100.00;101528.34;5074554;28;20101;-82
2023/03/21 01:32:33;;;;;;;22.58;8.27;;;;;;;8.82;100.00;101528.34;5066637;28;20111;-83
2023/03/21 01:34:59;;;;;;;15.57;8.68;;;;;;;8.83;100.00;101528.28;5077183;28;20047;-83
2023/03/21 01:37:25;;;;;;;16.05;7.50;;;;;;;8.82;100.00;101520.41;5077730;28;20027;-83
2023/03/21 01:39:50;;;;;;;15.45;7.65;;;;;;;8.79;100.00;101504.69;5070203;28;20025;-83
2023/03/21 01:42:16;;;;;;;13.90;8.00;;;;;;;8.80;100.00;101515.22;5076344;28;20036;-83
2023/03/21 01:44:57;;;;;;;15.13;7.65;;;;;;;8.81;100.00;101506.31;5062612;28;20476;-83
2023/03/21 01:47:23;;;;;;;15.77;8.57;;;;;;;8.79;100.00;101507.34;5063019;28;20024;-83
2023/03/21 01:49:51;;;;;;;16.88;8.45;;;;;;;8.78;100.00;101509.16;5078377;28;20112;-83
2023/03/21 01:52:23;;;;;;;16.48;8.43;;;;;;;8.78;100.00;101514.44;5073231;28;20029;-83
2023/03/21 01:54:50;;;;;;;16.40;8.98;;;;;;;8.78;100.00;101505.66;5069547;28;20056;-83
2023/03/21 01:57:23;;;;;;;17.00;8.98;;;;;;;8.75;100.00;101505.84;5068367;28;20086;-83
2023/03/21 01:59:53;;;;;;;20.10;8.85;;;;;;;8.73;100.00;101505.03;5069009;28;20021;-83
2023/03/21 02:02:23;;;;;;;16.77;8.40;;;;;;;8.76;100.00;101499.56;5064143;28;20012;-83
2023/03/21 02:04:50;;;;;;;16.40;8.98;;;;;;;8.74;100.00;101497.00;5066683;28;20492;-83
2023/03/21 02:07:21;;;;;;;15.43;8.95;;;;;;;8.73;100.00;101502.41;5075552;28;20028;-83
2023/03/21 02:09:49;;;;;;;16.88;8.93;;;;;;;8.71;100.00;101491.91;5077372;28;20075;-83
2023/03/21 02:12:17;;;;;;;17.95;9.00;;;;;;;8.70;100.00;101491.03;5077510;28;20426;-83
2023/03/21 02:14:45;;;;;;;17.73;9.18;;;;;;;8.70;100.00;101482.25;5077584;28;20356;-83
2023/03/21 02:17:16;;;;;;;14.63;8.48;;;;;;;8.70;100.00;101482.25;5074017;28;20052;-83
2023/03/21 02:20:12;;;;;;;11.75;7.93;;;;;;;8.70;100.00;101480.44;5067021;28;20472;-83
2023/03/21 02:22:51;;;;;;;13.10;8.25;;;;;;;8.70;100.00;101469.00;5063846;28;20427;-83
2023/03/21 02:25:40;;;;;;;19.30;8.55;;;;;;;8.70;100.00;101479.59;5076460;28;20082;-83
2023/03/21 02:28:31;;;;;;;16.77;8.90;;;;;;;8.69;100.00;101473.47;5064863;28;20395;-83
2023/03/21 02:31:09;;;;;;;16.67;8.75;;;;;;;8.66;100.00;101467.47;5073944;28;20090;-83
2023/03/21 02:33:58;;;;;;;15.15;8.30;;;;;;;8.65;100.00;101465.78;5067242;28;20020;-83
2023/03/21 02:36:50;;;;;;;16.10;8.45;;;;;;;8.65;100.00;101460.50;5071908;28;20016;-83
2023/03/21 02:39:18;;;;;;;17.38;8.40;;;;;;;8.65;100.00;101457.84;5076337;28;20039;-83
2023/03/21 02:41:49;;;;;;;16.17;8.20;;;;;;;8.62;100.00;101456.22;5065101;28;20025;-83
2023/03/21 02:44:39;;;;;;;19.60;9.27;;;;;;;8.64;100.00;101459.66;5074288;28;20021;-83
2023/03/21 02:47:10;;;;;;;16.42;7.93;;;;;;;8.65;100.00;101452.53;5057764;28;20055;-83
2023/03/21 02:49:42;;;;;;;15.35;8.13;;;;;;;8.66;100.00;101457.75;5076496;28;20021;-83
2023/03/21 02:52:13;;;;;;;13.48;8.02;;;;;;;8.64;100.00;101453.47;5076164;28;20051;-83
2023/03/21 02:54:42;;;;;;;18.10;8.35;;;;;;;8.66;100.00;101451.59;5076401;28;20082;-83
2023/03/21 02:57:08;;;;;;;13.18;8.55;;;;;;;8.65;100.00;101447.25;5075753;28;20134;-83
2023/03/21 02:59:35;;;;;;;15.70;8.52;;;;;;;8.64;100.00;101443.75;5075556;28;20033;-83
2023/03/21 03:02:01;;;;;;;14.23;8.70;;;;;;;8.64;100.00;101448.19;5076058;28;20391;-83
2023/03/21 03:04:27;;;;;;;15.80;8.32;;;;;;;8.62;100.00;101437.69;5057887;28;20024;-84
2023/03/21 03:07:20;;;;;;;16.10;8.55;;;;;;;8.64;100.00;101442.88;5075635;28;20494;-83
2023/03/21 03:09:56;;;;;;;16.50;8.43;;;;;;;8.62;100.00;101440.31;5088519;28;20029;-83
2023/03/21 03:12:59;;;;;;;15.85;8.48;;;;;;;8.63;100.00;101435.91;5076909;28;20116;-83
2023/03/21 03:16:01;;;;;;;15.25;8.57;;;;;;;8.62;100.00;101436.84;5076459;28;20067;-83
2023/03/21 03:18:51;;;;;;;18.17;8.90;;;;;;;8.60;100.00;101434.28;5064617;28;20024;-83
2023/03/21 03:21:19;;;;;;;14.40;8.70;;;;;;;8.58;100.00;101430.03;5076080;28;20112;-83
2023/03/21 03:23:51;;;;;;;18.77;8.90;;;;;;;8.56;100.00;101429.25;5076000;28;20032;-83
2023/03/21 03:26:20;;;;;;;17.13;8.63;;;;;;;8.57;100.00;101425.66;5075394;28;20389;-83
2023/03/21 03:28:49;;;;;;;;;;;;;;;8.63;100.00;101425.31;5076916;28;20032;-83
2023/03/21 03:31:20;;;;;;;18.77;9.50;;;;;;;8.54;100.00;101418.75;5075940;28;19916;-83
2023/03/21 03:33:51;;;;;;;17.77;8.65;;;;;;;8.52;100.00;101418.81;5076139;28;20028;-83
2023/03/21 03:36:19;;;;;;;14.50;8.13;;;;;;;8.52;100.00;101421.47;5076747;28;20033;-83
2023/03/21 03:38:45;;;;;;;14.07;8.60;;;;;;;8.49;100.00;101413.75;5082227;28;20051;-83
2023/03/21 03:41:22;;;;;;;16.75;9.05;;;;;;;8.50;100.00;101418.06;5089593;28;20032;-83
2023/03/21 03:43:55;;;;;;;19.15;8.73;;;;;;;8.49;100.00;101412.88;5089337;28;20028;-83
2023/03/21 03:46:29;;;;;;;15.35;8.45;;;;;;;8.48;100.00;101411.19;5066658;28;20064;-83
2023/03/21 03:49:04;;;;;;;17.58;9.18;;;;;;;8.46;100.00;101416.56;5082692;28;20031;-83
2023/03/21 03:51:59;;;;;;;15.52;9.32;;;;;;;8.48;100.00;101408.53;5097787;28;20522;-83
2023/03/21 03:54:31;;;;;;;19.63;8.93;;;;;;;8.45;100.00;101406.06;5041496;28;20040;-83
2023/03/21 03:56:57;;;;;;;14.27;8.95;;;;;;;8.44;100.00;101407.00;5085545;28;20084;-83
2023/03/21 03:59:24;;;;;;;14.68;8.73;;;;;;;8.42;100.00;101404.41;5075231;28;20491;-83
2023/03/21 04:01:49;;;;;;;20.30;9.23;;;;;;;8.42;100.00;101404.41;5077148;28;20475;-83
2023/03/21 04:04:15;;;;;;;19.02;9.50;;;;;;;8.40;100.00;101398.34;5074698;28;20103;-83
2023/03/21 04:06:44;;;;;;;16.25;9.52;;;;;;;8.40;100.00;101405.44;5067138;28;20029;-83
2023/03/21 04:09:10;;;;;;;14.70;8.45;;;;;;;8.40;100.00;101405.44;5070690;28;20108;-83
2023/03/21 04:11:35;;;;;;;18.45;8.77;;;;;;;8.40;100.00;101394.84;5067583;28;20064;-83
2023/03/21 04:14:00;;;;;;;15.52;9.52;;;;;;;8.39;100.00;101395.78;5081368;28;20088;-83
2023/03/21 04:16:27;;;;;;;16.70;9.10;;;;;;;8.37;100.00;101401.16;5080154;28;20059;-83
2023/03/21 04:18:52;;;;;;;16.98;9.50;;;;;;;8.38;100.00;101391.47;5080049;28;20356;-83
2023/03/21 04:21:18;;;;;;;19.42;10.10;;;;;;;8.38;100.00;101389.66;5076109;28;20063;-83
2023/03/21 04:23:44;;;;;;;18.33;9.18;;;;;;;8.38;100.00;101388.81;5074973;28;20031;-83
2023/03/21 04:26:09;;;;;;;20.10;9.77;;;;;;;8.39;100.00;101390.50;5074992;28;20062;-83
2023/03/21 04:28:35;;;;;;;20.40;9.57;;;;;;;8.38;100.00;101388.81;5075191;28;20032;-83
2023/03/21 04:31:03;;;;;;;16.70;8.95;;;;;;;8.36;100.00;101382.72;5074296;28;20039;-81
2023/03/21 04:33:28;;;;;;;16.33;8.77;;;;;;;8.37;100.00;101384.44;5076657;28;20090;-81
2023/03/21 04:35:57;;;;;;;15.32;9.52;;;;;;;8.36;100.00;101380.09;5067671;28;20025;-83
2023/03/21 04:38:29;;;;;;;15.60;9.55;;;;;;;8.35;100.00;101376.59;5075822;28;20020;-83
2023/03/21 04:40:55;;;;;;;17.77;9.75;;;;;;;8.36;100.00;101375.66;5061403;28;20017;-83
2023/03/21 04:43:22;;;;;;;21.00;9.32;;;;;;;8.35;100.00;101373.94;5067049;28;20028;-83
2023/03/21 04:45:48;;;;;;;18.23;9.73;;;;;;;8.35;100.00;101373.94;5069893;28;20372;-83
2023/03/21 04:48:13;;;;;;;17.65;10.13;;;;;;;8.35;100.00;101366.00;5067023;28;20020;-83
2023/03/21 04:50:39;;;;;;;20.85;9.20;;;;;;;8.36;100.00;101364.22;5075643;28;20021;-83
2023/03/21 04:53:04;;;;;;;16.95;9.15;;;;;;;8.37;100.00;101365.91;5076928;28;20487;-83
2023/03/21 04:55:31;;;;;;;20.05;9.20;;;;;;;8.38;100.00;101368.47;5077625;28;20056;-83
2023/03/21 04:57:56;;;;;;;18.92;9.27;;;;;;;8.38;100.00;101359.69;5075239;28;20046;-83
2023/03/21 05:00:22;;;;;;;20.85;9.00;;;;;;;8.38;100.00;101349.09;5074817;28;20024;-83
2023/03/21 05:02:48;;;;;;;14.90;9.27;;;;;;;8.37;100.00;101353.53;5074783;28;20071;-83
2023/03/21 05:05:13;;;;;;;24.50;9.73;;;;;;;8.38;100.00;101357.06;5074752;28;20099;-83
2023/03/21 05:07:42;;;;;;;17.52;8.90;;;;;;;8.38;100.00;101349.09;5078940;28;20066;-83
2023/03/21 05:10:10;;;;;;;18.42;9.05;;;;;;;8.40;100.00;101355.16;5063343;28;20039;-83
2023/03/21 05:12:36;;;;;;;18.63;8.98;;;;;;;8.40;100.00;101349.84;5060241;28;20025;-81
2023/03/21 05:15:01;;;;;;;20.10;9.70;;;;;;;8.37;100.00;101345.59;5078095;28;20035;-81
2023/03/21 05:17:27;;;;;;;19.67;9.35;;;;;;;8.40;100.00;101347.22;5084320;28;20032;-81
2023/03/21 05:19:55;;;;;;;14.90;8.45;;;;;;;8.39;100.00;101346.34;5070030;28;20032;-81
2023/03/21 05:22:23;;;;;;;19.17;9.73;;;;;;;8.40;100.00;101350.69;5083590;28;20059;-81
2023/03/21 05:24:49;;;;;;;18.30;8.73;;;;;;;8.41;100.00;101348.91;5091025;28;20024;-81
2023/03/21 05:27:34;;;;;;;20.30;10.07;;;;;;;8.41;100.00;101349.78;5080917;28;20124;-81
2023/03/21 05:30:12;;;;;;;19.70;8.88;;;;;;;8.42;100.00;101345.31;5071782;28;20052;-83
2023/03/21 05:32:37;;;;;;;14.13;8.73;;;;;;;8.42;100.00;101351.47;5074138;28;20025;-82
2023/03/21 05:35:03;;;;;;;13.95;8.27;;;;;;;8.42;100.00;101347.97;5089134;28;20029;-82
2023/03/21 05:37:28;;;;;;;16.73;9.00;;;;;;;8.42;100.00;101346.16;5075962;28;20056;-81
2023/03/21 05:39:53;;;;;;;21.35;8.90;;;;;;;8.42;100.00;101343.50;5079673;28;20059;-81
2023/03/21 05:42:19;;;;;;;19.30;8.68;;;;;;;8.42;100.00;101350.63;5070540;28;20025;-81
2023/03/21 05:44:45;;;;;;;17.95;8.27;;;;;;;8.43;100.00;101341.78;5078722;28;20032;-81
2023/03/21 05:47:16;;;;;;;15.77;8.70;;;;;;;8.43;100.00;101349.72;5082525;28;20025;-81
2023/03/21 05:49:42;;;;;;;17.08;8.48;;;;;;;8.42;100.00;101345.31;5077224;28;20037;-81
2023/03/21 05:52:07;;;;;;;17.35;8.57;;;;;;;8.42;100.00;101346.16;5082695;28;20111;-81
2023/03/21 05:54:32;;;;;;;16.15;7.90;;;;;;;8.44;100.00;101351.41;5085630;28;20029;-81
2023/03/21 05:56:58;;;;;;;16.50;8.55;;;;;;;8.43;100.00;101345.25;5084233;28;20043;-81
2023/03/21 05:59:23;;;;;;;15.95;8.30;;;;;;;8.44;100.00;101348.75;5076077;28;20475;-81
2023/03/21 06:01:49;;;;;;;15.80;8.02;;;;;;;8.44;100.00;101346.97;5084210;28;20043;-81
2023/03/21 06:04:14;;;;;;;16.85;8.18;;;;;;;8.44;100.00;101346.09;5065000;28;20056;-81
2023/03/21 06:06:40;;;;;;;18.25;8.60;;;;;;;8.45;100.00;101346.03;5066008;28;20036;-81
2023/03/21 06:09:05;;;;;;;15.27;7.82;;;;;;;8.44;100.00;101341.69;5083632;28;20475;-81
2023/03/21 06:11:34;;;;;;;18.77;7.40;;;;;;;8.46;100.00;101346.84;5071007;28;20057;-81
2023/03/21 06:14:00;;;;;;;15.00;8.80;;;;;;;8.46;100.00;101338.91;5084161;28;20052;-81
2023/03/21 06:16:25;;;;;;;19.20;7.60;;;;;;;8.47;100.00;101341.47;5082305;28;20448;-81
2023/03/21 06:18:50;;;;;;;16.08;7.70;;;;;;;8.50;100.00;101351.88;5083516;28;20384;-81
2023/03/21 06:21:16;;;;;;;13.20;7.85;;;;;;;8.52;100.00;101352.63;5084716;28;20040;-81
2023/03/21 06:23:41;;;;;;;13.52;8.05;;;;;;;8.54;100.00;101352.56;5081993;28;20016;-81
2023/03/21 06:26:06;;;;;;;13.88;7.22;;;;;;;8.57;100.00;101360.31;5081684;28;20025;-81
2023/03/21 06:28:32;;;;;;;13.52;7.25;;;;;;;8.56;100.00;101348.03;5072929;28;20052;-81
2023/03/21 06:30:57;;;;;;;16.85;7.53;;;;;;;8.58;100.00;101359.38;5061824;28;20491;-81
2023/03/21 06:33:23;;;;;;;13.75;6.97;;;;;;;8.60;100.00;101360.13;5078204;28;20029;-81
2023/03/21 06:35:56;;;;;;;17.77;6.85;;;;;;;8.63;100.00;101357.31;5078456;28;20088;-81
2023/03/21 06:38:23;;;;;;;16.90;7.70;;;;;;;8.65;100.00;101360.72;5077890;28;20063;-81
2023/03/21 06:40:49;;;;;;;19.77;7.72;;;;;;;8.63;100.00;101356.47;5078748;28;20416;-81
2023/03/21 06:43:17;;;;;;;14.32;7.15;;;;;;;8.65;100.00;101360.72;5069375;28;20025;-81
2023/03/21 06:45:43;;;;;;;17.05;7.47;;;;;;;8.64;100.00;101361.66;5057333;28;20051;-82
2023/03/21 06:48:08;;;;;;;16.33;7.65;;;;;;;8.65;100.00;101360.72;5057480;28;20462;-82
2023/03/21 06:50:34;;;;;;;15.82;7.20;;;;;;;8.66;100.00;101362.41;5062686;28;20028;-82
2023/03/21 06:53:00;;;;;;;16.48;7.32;;;;;;;8.66;100.00;101362.41;5059538;28;20022;-82
2023/03/21 06:55:27;;;;;;;13.85;7.25;;;;;;;8.65;100.00;101360.72;5077904;28;20024;-82
2023/03/21 06:57:54;;;;;;;15.10;7.40;;;;;;;8.66;100.00;101372.16;5078022;28;20021;-82
2023/03/21 07:00:20;;;;;;;17.17;7.63;;;;;;;8.65;100.00;101368.66;5090270;28;20029;-82
2023/03/21 07:02:46;;;;;;;19.10;7.82;;;;;;;8.65;100.00;101366.00;5098375;28;20028;-83
2023/03/21 07:05:18;;;;;;;14.40;7.70;;;;;;;8.67;100.00;101372.06;5080425;28;20088;-83
2023/03/21 07:07:44;;;;;;;17.52;7.90;;;;;;;8.67;100.00;101376.50;5083472;28;20036;-83
2023/03/21 07:10:10;;;;;;;18.15;7.85;;;;;;;8.63;100.00;101369.69;5084854;28;20033;-83
2023/03/21 07:12:36;;;;;;;18.80;7.65;;;;;;;8.62;100.00;101374.13;5067593;28;20033;-83
2023/03/21 07:15:03;;;;;;;17.00;8.48;;;;;;;8.65;100.00;101375.75;5084823;28;20028;-83
2023/03/21 07:17:29;;;;;;;16.20;8.10;;;;;;;8.64;100.00;101385.50;5096707;28;20044;-84
2023/03/21 07:19:55;;;;;;;17.27;8.27;;;;;;;8.65;100.00;101375.75;5089680;28;20024;-83
2023/03/21 07:22:20;;;;;;;16.25;7.63;;;;;;;8.70;100.00;101386.91;5075623;28;20055;-83
2023/03/21 07:24:49;;;;;;;18.40;8.18;;;;;;;8.71;100.00;101383.34;5078496;28;20022;-83
2023/03/21 07:27:16;;;;;;;18.65;8.32;;;;;;;8.73;100.00;101386.75;5077968;28;20485;-83
2023/03/21 07:29:42;;;;;;;22.58;8.40;;;;;;;8.74;100.00;101391.06;5079857;28;20403;-84
2023/03/21 07:32:08;;;;;;;20.63;8.63;;;;;;;8.72;100.00;101387.66;5083511;28;20062;-84
2023/03/21 07:34:34;;;;;;;17.35;8.27;;;;;;;8.74;100.00;101384.94;5083103;28;20071;-84
2023/03/21 07:36:59;;;;;;;15.57;8.50;;;;;;;8.70;100.00;101373.69;5070196;28;20041;-83
2023/03/21 07:39:26;;;;;;;17.65;8.20;;;;;;;8.77;100.00;101382.09;5081491;28;20525;-82
2023/03/21 07:41:52;;;;;;;20.83;9.45;;;;;;;8.77;100.00;101380.31;5079798;28;20094;-82
2023/03/21 07:44:18;;;;;;;19.00;8.75;;;;;;;8.78;100.00;101374.06;5080073;28;20040;-83
2023/03/21 07:46:46;;;;;;;20.70;8.88;;;;;;;8.77;100.00;101382.09;5080740;28;20033;-84
2023/03/21 07:49:11;;;;;;;18.17;9.75;;;;;;;8.77;100.00;101368.88;5073366;28;20052;-83
2023/03/21 07:51:37;;;;;;;21.02;8.90;;;;;;;8.79;100.00;101366.97;5064528;28;20017;-83
2023/03/21 07:54:02;;;;;;;20.95;9.15;;;;;;;8.80;100.00;101368.69;5090503;28;20028;-82
2023/03/21 07:56:28;;;;;;;17.65;9.55;;;;;;;8.81;100.00;101365.06;5078062;28;20082;-83
2023/03/21 07:58:53;;;;;;;22.45;9.65;;;;;;;8.80;100.00;101356.28;5070621;28;20028;-83
2023/03/21 08:01:20;;;;;;;16.88;9.70;;;;;;;8.81;100.00;101351.81;5060884;28;20021;-83
2023/03/21 08:03:46;;;;;;;19.58;9.10;;;;;;;8.83;100.00;101350.81;5078932;28;20024;-83
2023/03/21 08:06:13;;;;;;;15.95;9.75;;;;;;;8.78;100.00;101341.44;5086919;28;20052;-84
2023/03/21 08:08:38;;;;;;;20.35;9.75;;;;;;;8.79;100.00;101329.88;5082455;28;20037;-83
2023/03/21 08:11:13;;;;;;;18.23;9.27;;;;;;;8.84;100.00;101333.09;5068012;28;20384;-83
2023/03/21 08:13:39;;;;;;;20.23;10.60;;;;;;;8.87;100.00;101338.22;5065213;28;20027;-83
2023/03/21 08:16:05;;;;;;;22.45;10.52;;;;;;;8.92;100.00;101330.84;5062692;28;20029;-83
2023/03/21 08:18:31;;;;;;;21.05;9.80;;;;;;;8.95;100.00;101322.69;5077426;28;20032;-83
2023/03/21 08:20:56;;;;;;;21.55;10.35;;;;;;;8.98;100.00;101319.03;5064628;28;20032;-83
2023/03/21 08:23:23;;;;;;;21.90;10.00;;;;;;;8.98;100.00;101317.22;5064496;28;20090;-83
2023/03/21 08:25:53;;;;;;;15.85;9.10;;;;;;;9.04;100.00;101324.78;5078795;28;20027;-83
2023/03/21 08:28:19;;;;;;;22.75;9.63;;;;;;;9.01;100.00;101311.72;5079862;28;20032;-83
2023/03/21 08:30:44;;;;;;;23.23;9.43;;;;;;;9.01;100.00;101313.50;5078870;28;20040;-83
2023/03/21 08:33:10;;;;;;;20.02;9.48;;;;;;;8.99;100.00;101302.16;5072382;28;20150;-83
2023/03/21 08:35:35;;;;;;;18.85;8.85;;;;;;;9.04;100.00;101316.84;5074524;28;20076;-82
2023/03/21 08:38:02;;;;;;;17.20;9.50;;;;;;;9.03;100.00;101312.47;5069927;28;20090;-83
2023/03/21 08:40:27;;;;;;;16.33;8.05;;;;;;;9.05;100.00;101312.38;5069941;28;20537;-83
2023/03/21 08:42:53;;;;;;;15.63;8.68;;;;;;;9.01;100.00;101303.78;5078817;28;20044;-83
2023/03/21 08:45:18;;;;;;;15.52;9.27;;;;;;;9.06;100.00;101317.59;5068630;28;20025;-83
2023/03/21 08:47:45;;;;;;;14.52;8.05;;;;;;;9.06;100.00;101307.00;5063452;28;20024;-83
2023/03/21 08:50:14;;;;;;;14.02;7.70;;;;;;;9.04;100.00;101305.38;5075398;28;20028;-83
2023/03/21 08:52:40;;;;;;;20.17;8.88;;;;;;;9.06;100.00;101303.50;5070444;28;20025;-83
2023/03/21 08:55:06;;;;;;;15.75;7.75;;;;;;;9.06;100.00;101298.19;5074473;28;20537;-83
2023/03/21 08:57:32;;;;;;;18.25;7.90;;;;;;;9.08;100.00;101296.28;5055314;28;20021;-83
2023/03/21 08:59:57;;;;;;;13.45;7.72;;;;;;;9.09;100.00;101292.69;5081616;28;20029;-83
2023/03/21 09:02:22;;;;;;;17.23;8.35;;;;;;;9.11;100.00;101289.94;5080632;28;20040;-83
2023/03/21 09:04:48;;;;;;;19.05;8.20;;;;;;;9.13;100.00;101282.75;5088400;28;20020;-83
2023/03/21 09:07:16;;;;;;;16.02;8.27;;;;;;;9.16;100.00;101282.53;5051699;28;20028;-83
2023/03/21 09:09:42;;;;;;;13.02;7.75;;;;;;;9.20;100.00;101294.66;5065415;28;20037;-83
2023/03/21 09:12:07;;;;;;;18.95;8.85;;;;;;;9.25;100.00;101297.88;5077381;28;20059;-83
2023/03/21 09:14:34;;;;;;;13.70;8.25;;;;;;;9.22;100.00;101283.00;5069677;28;20029;-83
2023/03/21 09:16:59;;;;;;;16.50;8.07;;;;;;;9.29;100.00;101288.75;5065648;28;20032;-83
2023/03/21 09:19:26;;;;;;;12.95;7.93;;;;;;;9.31;100.00;101292.19;5072612;28;20032;-83
2023/03/21 09:21:52;;;;;;;16.17;8.23;;;;;;;9.33;100.00;101295.59;5075205;28;20059;-83
2023/03/21 09:24:18;;;;;;;15.43;8.38;;;;;;;9.31;100.00;101283.34;5077187;28;20483;-83
2023/03/21 09:26:43;;;;;;;16.27;7.50;;;;;;;9.38;100.00;101284.69;5070600;28;20040;-83
2023/03/21 09:29:09;;;;;;;13.55;7.47;;;;;;;9.40;100.00;101285.44;5070925;28;20434;-83
2023/03/21 09:31:34;;;;;;;14.82;7.72;;;;;;;9.43;100.00;101275.47;5078663;28;20064;-82
2023/03/21 09:34:00;;;;;;;15.50;7.47;;;;;;;9.44;100.00;101271.88;5076747;28;20036;-83
2023/03/21 09:36:26;;;;;;;16.67;8.90;;;;;;;9.47;100.00;101268.16;5078192;28;20084;-82
2023/03/21 09:38:53;;;;;;;17.70;8.52;;;;;;;9.52;100.00;101268.72;5078398;28;20476;-82
2023/03/21 09:41:56;;;;;;;17.50;8.30;;;;;;;9.56;100.00;101269.34;5064131;28;20052;-82
2023/03/21 09:44:40;;;;;;;18.30;7.78;;;;;;;9.59;100.00;101271.81;5077972;28;20399;-82
2023/03/21 09:47:20;;;;;;;11.57;6.68;;;;;;;9.60;100.00;101273.53;5069488;28;20025;-82
2023/03/21 09:49:51;;;;;;;13.32;6.97;;;;;;;9.60;100.00;101261.09;5075411;28;20367;-82
2023/03/21 09:52:27;;;;;;;14.73;7.65;;;;;;;9.66;100.00;101264.31;5063243;28;20063;-82
2023/03/21 09:54:54;;;;;;;13.70;6.93;;;;;;;9.70;100.00;101263.16;5068082;28;20491;-83
2023/03/21 09:57:41;;;;;;;14.00;6.57;;;;;;;9.75;100.00;101256.59;5069906;28;20028;-82
2023/03/21 10:00:24;;;;;;;14.43;6.88;;;;;;;9.78;100.00;101253.75;5069969;28;20417;-82
2023/03/21 10:02:52;;;;;;;11.75;6.25;;;;;;;9.86;100.00;101244.41;5067670;28;20029;-83
2023/03/21 10:05:28;;;;;;;13.43;7.10;;;;;;;9.94;100.00;101247.41;5077718;28;20067;-82
2023/03/21 10:07:58;;;;;;;13.43;6.63;;;;;;;9.98;100.00;101249.75;5077992;28;20483;-83
2023/03/21 10:10:27;;;;;;;13.23;6.35;;;;;;;10.03;100.00;101243.28;5058321;28;20120;-82
2023/03/21 10:12:54;;;;;;;;;;;;;;;10.10;100.00;101249.88;5060753;28;20385;-82
2023/03/21 10:15:22;;;;;;;11.48;5.95;;;;;;;10.14;100.00;101243.38;5069063;28;19908;-82
2023/03/21 10:17:57;;;;;;;8.93;5.60;;;;;;;10.18;100.00;101239.59;5062583;28;20493;-82
2023/03/21 10:20:31;;;;;;;11.52;5.75;;;;;;;10.24;100.00;101239.16;5078463;28;20032;-82
2023/03/21 10:23:00;;;;;;;12.02;5.60;;;;;;;10.27;100.00;101235.44;5078403;28;20103;-82
2023/03/21 10:25:32;;;;;;;11.63;5.85;;;;;;;10.34;100.00;101231.44;5070664;28;20104;-82
2023/03/21 10:27:59;;;;;;;15.93;5.18;;;;;;;10.43;100.00;101237.94;5079533;28;20033;-82
2023/03/21 10:30:27;;;;;;;13.60;5.53;;;;;;;10.51;100.00;101239.09;5091562;28;20044;-82
2023/03/21 10:33:03;;;;;;;13.75;6.55;;;;;;;10.58;100.00;101228.03;5086184;28;20090;-82
2023/03/21 10:35:32;;;;;;;14.55;6.43;;;;;;;10.62;100.00;101237.47;5075739;28;20024;-82
2023/03/21 10:37:58;;;;;;;12.88;5.80;;;;;;;10.70;100.00;101224.50;5061525;28;20059;-82
2023/03/21 10:40:23;;;;;;;10.73;5.70;;;;;;;10.77;100.00;101223.09;5058971;28;20456;-82
2023/03/21 10:42:48;;;;;;;12.38;5.90;;;;;;;10.85;100.00;101234.03;5077252;28;20071;-82
2023/03/21 10:45:17;;;;;;;16.90;6.82;;;;;;;10.90;100.00;101229.22;5066694;28;20029;-82
2023/03/21 10:47:47;;;;;;;13.80;6.03;;;;;;;11.00;100.00;101229.41;5070582;28;20075;-82
2023/03/21 10:50:15;;;;;;;9.38;5.25;;;;;;;11.04;100.00;101236.22;5058093;28;20035;-82
2023/03/21 10:52:46;;;;;;;13.48;5.10;;;;;;;11.11;100.00;101233.97;5076677;28;20388;-82
2023/03/21 10:55:20;;;;;;;15.85;5.72;;;;;;;11.13;100.00;101223.22;5069777;28;20047;-82
2023/03/21 10:57:46;;;;;;;12.05;5.55;;;;;;;11.26;99.40;101232.00;5077034;28;20394;-82
2023/03/21 11:00:25;;;;;;;13.77;5.75;;;;;;;11.39;100.00;101243.44;5058329;28;20040;-82
2023/03/21 11:02:52;;;;;;;10.00;4.97;;;;;;;11.52;97.29;101230.06;5077615;28;20103;-82
2023/03/21 11:05:40;;;;;;;8.98;5.05;;;;;;;11.63;97.83;101223.94;5058870;28;20519;-82
2023/03/21 11:08:12;;;;;;;13.23;4.85;;;;;;;11.69;94.70;101225.28;5056507;28;20024;-82
2023/03/21 11:11:01;;;;;;;8.20;4.40;;;;;;;11.75;95.83;101216.84;5068469;28;20108;-82
2023/03/21 11:13:36;;;;;;;11.18;4.53;;;;;;;11.78;92.59;101227.28;5062176;28;20377;-82
2023/03/21 11:16:17;;;;;;;10.68;4.38;;;;;;;11.85;93.36;101217.84;5076082;28;20036;-82
2023/03/21 11:18:48;;;;;;;11.48;4.57;;;;;;;11.88;92.33;101219.44;5067049;28;20040;-82
2023/03/21 11:21:14;;;;;;;10.63;4.35;;;;;;;11.92;92.31;101229.75;5069130;28;20044;-82
2023/03/21 11:23:45;;;;;;;8.02;4.60;;;;;;;11.94;90.39;101230.50;5071189;28;20081;-82
2023/03/21 11:26:17;;;;;;;8.27;4.57;;;;;;;11.97;90.66;101232.06;5070836;28;20060;-83
2023/03/21 11:28:45;;;;;;;9.63;4.38;;;;;;;12.02;89.38;101222.78;5076081;28;20035;-83